Time;durP1;ratioP1;P1;durP2;ratioP2;P2;SDS_P1;SDS_P2;PMS_P1;PMS_P2;Temp;Humidity;BMP_temperature;BMP_pressure;BME280_temperature;BME280_humidity;BME280_pressure;Samples;Min_cycle;Max_cycle;Signal;HPM_P1;HPM_P2
2023/08/17 00:01:24;;;;;;;5.45;5.00;;;19.20;99.90;;;;;;5027902;28;20018;-59
2023/08/17 00:03:50;;;;;;;5.32;4.82;;;19.20;99.90;;;;;;5029841;28;20060;-59
2023/08/17 00:06:15;;;;;;;4.90;4.50;;;19.10;99.90;;;;;;5027155;28;20436;-59
2023/08/17 00:08:42;;;;;;;6.05;4.40;;;19.10;99.90;;;;;;5022463;28;20555;-60
2023/08/17 00:11:07;;;;;;;5.00;4.55;;;19.10;99.90;;;;;;5018673;28;20079;-60
2023/08/17 00:13:33;;;;;;;5.95;5.15;;;19.20;99.90;;;;;;5029868;28;20062;-58
2023/08/17 00:15:59;;;;;;;5.47;4.97;;;19.20;99.90;;;;;;5028010;28;20041;-58
2023/08/17 00:18:24;;;;;;;6.28;5.65;;;19.30;99.90;;;;;;5030678;28;20026;-59
2023/08/17 00:20:50;;;;;;;5.95;5.45;;;19.30;99.90;;;;;;5029967;28;20108;-57
2023/08/17 00:23:15;;;;;;;5.80;4.65;;;19.40;99.90;;;;;;5031139;28;20021;-60
2023/08/17 00:25:41;;;;;;;6.95;4.97;;;19.50;99.90;;;;;;5028993;28;20022;-60
2023/08/17 00:28:07;;;;;;;4.45;3.90;;;19.50;99.90;;;;;;5031931;28;20049;-58
2023/08/17 00:30:35;;;;;;;4.65;4.30;;;19.50;99.90;;;;;;5025864;28;20072;-60
2023/08/17 00:33:02;;;;;;;5.18;4.20;;;19.50;99.90;;;;;;5028772;28;20033;-58
2023/08/17 00:35:28;;;;;;;4.90;4.45;;;19.60;99.90;;;;;;5026328;28;20080;-58
2023/08/17 00:37:53;;;;;;;4.95;4.30;;;19.60;99.90;;;;;;5022148;28;20036;-59
2023/08/17 00:40:19;;;;;;;7.10;4.35;;;19.70;99.90;;;;;;5027272;28;20025;-60
2023/08/17 00:42:45;;;;;;;5.75;4.70;;;19.70;99.90;;;;;;5026704;28;20087;-60
2023/08/17 00:45:11;;;;;;;4.72;4.07;;;19.70;99.90;;;;;;5030386;28;20068;-58
2023/08/17 00:47:37;;;;;;;5.30;4.38;;;19.70;99.90;;;;;;5029595;28;20061;-59
2023/08/17 00:50:03;;;;;;;5.35;4.78;;;19.80;99.90;;;;;;5024811;28;20031;-58
2023/08/17 00:52:31;;;;;;;4.70;4.30;;;19.80;99.90;;;;;;5031680;28;20638;-57
2023/08/17 00:54:58;;;;;;;4.95;3.90;;;19.80;99.90;;;;;;5034298;28;20025;-58
2023/08/17 00:57:24;;;;;;;4.72;4.22;;;19.70;99.90;;;;;;5029895;28;20017;-59
2023/08/17 00:59:51;;;;;;;4.82;4.43;;;19.70;99.90;;;;;;5022271;28;20021;-60
2023/08/17 01:02:17;;;;;;;5.32;4.32;;;19.70;99.90;;;;;;5021543;28;20025;-59
2023/08/17 01:04:43;;;;;;;10.70;5.40;;;19.60;99.90;;;;;;5035492;28;20876;-57
2023/08/17 01:07:08;;;;;;;6.50;4.57;;;19.60;99.90;;;;;;5029093;28;20025;-58
2023/08/17 01:09:34;;;;;;;4.85;4.43;;;19.60;99.90;;;;;;5026655;28;20037;-59
2023/08/17 01:12:37;;;;;;;5.97;5.47;;;19.50;99.90;;;;;;5023852;28;20218;-57
2023/08/17 01:15:17;;;;;;;7.88;5.00;;;19.50;99.90;;;;;;5014553;28;20108;-58
2023/08/17 01:17:51;;;;;;;5.88;5.32;;;19.40;99.90;;;;;;5028228;28;20033;-58
2023/08/17 01:20:18;;;;;;;4.68;4.28;;;19.40;99.90;;;;;;5030495;28;20447;-59
2023/08/17 01:22:48;;;;;;;5.15;4.53;;;19.30;99.90;;;;;;5027169;28;20025;-59
2023/08/17 01:25:13;;;;;;;5.25;4.75;;;19.30;99.90;;;;;;5022756;28;20401;-57
2023/08/17 01:27:41;;;;;;;4.65;4.28;;;19.30;99.90;;;;;;5026125;28;20033;-56
2023/08/17 01:30:10;;;;;;;5.57;4.85;;;19.30;99.90;;;;;;5023943;28;20032;-59
2023/08/17 01:33:06;;;;;;;5.03;4.53;;;19.20;99.90;;;;;;5027014;28;20026;-57
2023/08/17 01:35:41;;;;;;;5.07;4.60;;;19.20;99.90;;;;;;5025533;28;20049;-57
2023/08/17 01:38:11;;;;;;;5.10;4.70;;;19.20;99.90;;;;;;5025044;28;20026;-56
2023/08/17 01:40:37;;;;;;;9.40;5.00;;;19.30;99.90;;;;;;5028511;28;20026;-59
2023/08/17 01:43:03;;;;;;;5.97;5.47;;;19.30;99.90;;;;;;5024166;28;20026;-57
2023/08/17 01:45:29;;;;;;;8.00;5.57;;;19.30;99.90;;;;;;5021651;28;20029;-60
2023/08/17 01:47:55;;;;;;;6.63;5.30;;;19.40;99.90;;;;;;5020116;28;20033;-57
2023/08/17 01:50:21;;;;;;;5.40;4.78;;;19.50;99.90;;;;;;5029185;28;20529;-57
2023/08/17 01:52:47;;;;;;;4.68;4.28;;;19.50;99.90;;;;;;5023305;28;20105;-58
2023/08/17 01:55:12;;;;;;;4.78;4.30;;;19.50;99.90;;;;;;5028787;28;20044;-58
2023/08/17 01:57:38;;;;;;;3.47;3.17;;;19.60;99.90;;;;;;5027879;28;20099;-57
2023/08/17 02:00:05;;;;;;;2.60;2.38;;;19.60;99.90;;;;;;5023269;28;20405;-57
2023/08/17 02:02:31;;;;;;;3.33;1.90;;;19.60;99.90;;;;;;5032267;28;20022;-57
2023/08/17 02:04:56;;;;;;;1.88;1.63;;;19.60;99.90;;;;;;5028034;28;20401;-59
2023/08/17 02:07:22;;;;;;;2.78;1.80;;;19.60;99.90;;;;;;5028312;28;20112;-59
2023/08/17 02:09:48;;;;;;;4.88;1.67;;;19.60;99.90;;;;;;5027455;28;20026;-58
2023/08/17 02:12:13;;;;;;;2.20;1.38;;;19.50;99.90;;;;;;5023642;28;20026;-59
2023/08/17 02:14:39;;;;;;;2.20;1.80;;;19.50;99.90;;;;;;5026756;28;20029;-59
2023/08/17 02:17:05;;;;;;;4.32;1.90;;;19.50;99.90;;;;;;5025708;28;20041;-59
2023/08/17 02:19:32;;;;;;;1.45;1.35;;;19.40;99.90;;;;;;5026365;28;20080;-59
2023/08/17 02:21:58;;;;;;;2.17;1.17;;;19.40;99.90;;;;;;5010890;28;20528;-59
2023/08/17 02:24:25;;;;;;;4.75;1.58;;;19.40;99.90;;;;;;5028226;28;20041;-59
2023/08/17 02:26:50;;;;;;;1.85;1.30;;;19.30;99.90;;;;;;5029497;28;20025;-59
2023/08/17 02:29:16;;;;;;;1.83;1.40;;;19.30;99.90;;;;;;5026700;28;20033;-58
2023/08/17 02:31:41;;;;;;;3.72;1.50;;;19.30;99.90;;;;;;5031503;28;20393;-58
2023/08/17 02:34:07;;;;;;;2.03;1.38;;;19.20;99.90;;;;;;5029982;28;20025;-58
2023/08/17 02:36:33;;;;;;;2.03;1.42;;;19.20;99.90;;;;;;5026671;28;20022;-57
2023/08/17 02:38:59;;;;;;;3.00;1.50;;;19.20;99.90;;;;;;5025160;28;20030;-57
2023/08/17 02:41:24;;;;;;;3.70;1.75;;;19.10;99.90;;;;;;5027079;28;20047;-57
2023/08/17 02:43:50;;;;;;;2.75;1.55;;;19.10;99.90;;;;;;5028451;28;20391;-58
2023/08/17 02:46:16;;;;;;;1.45;1.30;;;19.10;99.90;;;;;;5029295;28;20034;-60
2023/08/17 02:48:41;;;;;;;2.63;1.40;;;19.00;99.90;;;;;;5029104;28;20556;-58
2023/08/17 02:51:07;;;;;;;2.40;1.42;;;18.90;99.90;;;;;;5029922;28;20623;-58
2023/08/17 02:53:33;;;;;;;2.75;1.70;;;18.90;99.90;;;;;;5031005;28;20429;-59
2023/08/17 02:55:58;;;;;;;2.22;2.03;;;18.90;99.90;;;;;;5031515;28;20033;-59
2023/08/17 02:58:24;;;;;;;1.67;1.55;;;18.80;99.90;;;;;;5030538;28;20026;-58
2023/08/17 03:00:53;;;;;;;2.60;1.40;;;18.70;99.90;;;;;;5027993;28;20664;-60
2023/08/17 03:03:19;;;;;;;2.65;1.45;;;18.70;99.90;;;;;;5027671;28;20021;-58
2023/08/17 03:05:45;;;;;;;2.05;1.58;;;18.60;99.90;;;;;;5028880;28;20047;-58
2023/08/17 03:08:10;;;;;;;1.73;1.58;;;18.60;99.90;;;;;;5025378;28;20718;-60
2023/08/17 03:10:37;;;;;;;2.85;1.80;;;18.60;99.90;;;;;;5028091;28;20029;-59
2023/08/17 03:13:03;;;;;;;3.22;1.98;;;18.60;99.90;;;;;;5028292;28;20021;-58
2023/08/17 03:15:28;;;;;;;1.80;1.70;;;18.60;99.90;;;;;;5031647;28;20048;-57
2023/08/17 03:17:54;;;;;;;8.85;1.83;;;18.50;99.90;;;;;;5031688;28;20095;-58
2023/08/17 03:20:19;;;;;;;2.30;2.03;;;18.50;99.90;;;;;;5032342;28;20028;-58
2023/08/17 03:22:45;;;;;;;3.63;2.40;;;18.40;99.90;;;;;;5032105;28;20069;-60
2023/08/17 03:25:11;;;;;;;3.80;2.42;;;18.40;99.90;;;;;;5033488;28;20068;-57
2023/08/17 03:27:36;;;;;;;2.38;2.17;;;18.30;99.90;;;;;;5030084;28;20072;-57
2023/08/17 03:30:03;;;;;;;2.45;1.83;;;18.20;99.90;;;;;;5025264;28;20040;-59
2023/08/17 03:32:29;;;;;;;2.55;2.03;;;18.10;99.90;;;;;;5027967;28;20064;-58
2023/08/17 03:34:54;;;;;;;2.75;2.35;;;18.10;99.90;;;;;;5031793;28;20057;-59
2023/08/17 03:37:20;;;;;;;3.80;2.17;;;18.10;99.90;;;;;;5027671;28;20033;-59
2023/08/17 03:39:46;;;;;;;2.95;2.20;;;18.10;99.90;;;;;;5029382;28;20060;-59
2023/08/17 03:42:11;;;;;;;3.45;1.98;;;18.20;99.90;;;;;;5029950;28;20036;-56
2023/08/17 03:44:37;;;;;;;2.70;2.08;;;18.20;99.90;;;;;;5026512;28;20071;-59
2023/08/17 03:47:02;;;;;;;3.13;2.25;;;18.20;99.90;;;;;;5032864;28;20394;-58
2023/08/17 03:49:28;;;;;;;3.08;2.08;;;18.20;99.90;;;;;;5029059;28;20034;-57
2023/08/17 03:51:54;;;;;;;3.58;2.10;;;18.30;99.90;;;;;;5028012;28;20037;-58
2023/08/17 03:54:19;;;;;;;5.35;2.00;;;18.30;99.90;;;;;;5030508;28;20100;-57
2023/08/17 03:56:45;;;;;;;7.13;1.90;;;18.30;99.90;;;;;;5025064;28;20101;-58
2023/08/17 03:59:10;;;;;;;2.97;2.05;;;18.30;99.90;;;;;;5029322;28;20029;-58
2023/08/17 04:01:36;;;;;;;3.92;2.25;;;18.40;99.90;;;;;;5026625;28;20028;-57
2023/08/17 04:04:02;;;;;;;2.80;2.17;;;18.30;99.90;;;;;;5033948;28;20033;-57
2023/08/17 04:06:27;;;;;;;3.00;2.17;;;18.30;99.90;;;;;;5028023;28;20033;-60
2023/08/17 04:08:53;;;;;;;2.30;2.10;;;18.40;99.90;;;;;;5026456;28;20042;-57
2023/08/17 04:11:18;;;;;;;3.05;1.90;;;18.30;99.90;;;;;;5028377;28;20032;-59
2023/08/17 04:13:44;;;;;;;1.77;1.60;;;18.40;99.90;;;;;;5029226;28;20073;-59
2023/08/17 04:16:10;;;;;;;2.35;2.15;;;18.40;99.90;;;;;;5026917;28;20037;-57
2023/08/17 04:18:35;;;;;;;3.00;2.60;;;18.40;99.90;;;;;;5028978;28;20041;-59
2023/08/17 04:21:01;;;;;;;2.45;2.25;;;18.30;99.90;;;;;;5029120;28;20052;-59
2023/08/17 04:23:27;;;;;;;2.97;2.58;;;18.30;99.90;;;;;;5029227;28;20018;-59
2023/08/17 04:25:54;;;;;;;2.83;2.10;;;18.30;99.90;;;;;;5030320;28;20061;-58
2023/08/17 04:28:20;;;;;;;3.10;2.72;;;18.40;99.90;;;;;;5030706;28;20060;-59
2023/08/17 04:30:46;;;;;;;4.53;2.40;;;18.30;99.90;;;;;;5027479;28;20581;-58
2023/08/17 04:33:12;;;;;;;2.47;2.17;;;18.40;99.90;;;;;;5030931;28;20034;-60
2023/08/17 04:35:38;;;;;;;3.03;2.42;;;18.40;99.90;;;;;;5029256;28;21048;-57
2023/08/17 04:38:04;;;;;;;2.58;2.30;;;18.50;99.90;;;;;;5027593;28;20136;-59
2023/08/17 04:40:30;;;;;;;3.60;2.40;;;18.50;99.90;;;;;;5028475;28;20021;-59
2023/08/17 04:42:56;;;;;;;2.80;2.60;;;18.50;99.90;;;;;;5026941;28;20563;-60
2023/08/17 04:45:23;;;;;;;6.65;2.45;;;18.50;99.90;;;;;;5028133;28;20091;-58
2023/08/17 04:47:49;;;;;;;3.08;2.78;;;18.50;99.90;;;;;;5031089;28;20028;-58
2023/08/17 04:50:16;;;;;;;2.72;2.53;;;18.50;99.90;;;;;;5027155;28;20116;-58
2023/08/17 04:52:45;;;;;;;3.92;2.35;;;18.50;99.90;;;;;;5025016;28;20034;-58
2023/08/17 04:55:11;;;;;;;4.68;3.15;;;18.50;99.90;;;;;;5024199;28;20117;-60
2023/08/17 04:57:37;;;;;;;2.65;2.45;;;18.50;99.90;;;;;;5023531;28;20026;-58
2023/08/17 05:00:03;;;;;;;2.50;2.25;;;18.50;99.90;;;;;;5028381;28;20025;-58
2023/08/17 05:02:29;;;;;;;2.88;2.63;;;18.50;99.90;;;;;;5028479;28;20021;-59
2023/08/17 05:04:54;;;;;;;2.78;2.40;;;18.60;99.90;;;;;;5023490;28;20503;-59
2023/08/17 05:07:20;;;;;;;5.10;2.55;;;18.60;99.90;;;;;;5024214;28;20033;-60
2023/08/17 05:09:46;;;;;;;5.03;2.47;;;18.70;99.90;;;;;;5019442;28;20429;-63
2023/08/17 05:12:11;;;;;;;2.70;2.50;;;18.80;99.90;;;;;;5023225;28;20120;-57
2023/08/17 05:14:37;;;;;;;3.28;2.20;;;18.80;99.90;;;;;;5028477;28;20053;-57
2023/08/17 05:17:03;;;;;;;2.83;2.35;;;18.90;99.90;;;;;;5029529;28;20037;-58
2023/08/17 05:19:28;;;;;;;2.53;2.33;;;19.00;99.90;;;;;;5025967;28;20038;-58
2023/08/17 05:21:54;;;;;;;2.67;2.47;;;19.10;99.90;;;;;;5024608;28;20029;-59
2023/08/17 05:24:20;;;;;;;2.40;2.03;;;19.20;99.90;;;;;;5027575;28;20497;-58
2023/08/17 05:26:46;;;;;;;3.72;2.05;;;19.30;99.90;;;;;;5024871;28;20568;-60
2023/08/17 05:29:11;;;;;;;3.35;2.20;;;19.40;99.90;;;;;;5024829;28;20037;-58
2023/08/17 05:31:37;;;;;;;3.08;2.78;;;19.50;99.90;;;;;;5021330;28;20865;-58
2023/08/17 05:34:03;;;;;;;2.88;2.65;;;19.60;99.90;;;;;;5019765;28;20037;-59
2023/08/17 05:36:29;;;;;;;4.75;2.50;;;19.60;99.90;;;;;;5022681;28;20026;-59
2023/08/17 05:38:54;;;;;;;3.45;3.05;;;19.70;99.90;;;;;;5026233;28;20383;-60
2023/08/17 05:41:20;;;;;;;4.45;3.38;;;19.70;99.90;;;;;;5025024;28;20034;-59
2023/08/17 05:43:46;;;;;;;3.10;2.88;;;19.80;99.90;;;;;;5026632;28;20144;-60
2023/08/17 05:46:11;;;;;;;6.35;3.30;;;19.80;99.90;;;;;;5031119;28;20512;-57
2023/08/17 05:48:37;;;;;;;4.25;2.70;;;19.90;99.90;;;;;;5029734;28;20111;-59
2023/08/17 05:51:03;;;;;;;3.03;2.72;;;20.00;99.90;;;;;;5015321;28;20025;-59
2023/08/17 05:53:28;;;;;;;3.08;2.60;;;20.00;99.90;;;;;;5026398;28;20036;-58
2023/08/17 05:55:54;;;;;;;3.30;2.50;;;20.10;99.90;;;;;;5026299;28;20049;-58
2023/08/17 05:58:19;;;;;;;4.47;3.25;;;20.10;99.90;;;;;;5031990;28;20025;-59
2023/08/17 06:00:45;;;;;;;2.78;2.58;;;20.10;99.90;;;;;;5031477;28;20034;-57
2023/08/17 06:03:11;;;;;;;5.00;3.10;;;20.10;99.90;;;;;;5035865;28;20030;-58
2023/08/17 06:05:37;;;;;;;2.75;2.55;;;20.10;99.90;;;;;;5028519;28;20025;-58
2023/08/17 06:08:02;;;;;;;2.90;2.70;;;20.10;99.90;;;;;;5027270;28;20113;-58
2023/08/17 06:10:28;;;;;;;3.22;3.03;;;20.10;99.90;;;;;;5031509;28;20057;-59
2023/08/17 06:12:55;;;;;;;5.88;3.92;;;20.10;99.90;;;;;;5029187;28;20056;-58
2023/08/17 06:15:22;;;;;;;5.43;4.93;;;20.10;99.90;;;;;;5033961;28;20033;-59
2023/08/17 06:17:49;;;;;;;6.50;6.07;;;20.10;99.90;;;;;;5036904;28;20022;-59
2023/08/17 06:20:16;;;;;;;7.75;6.18;;;20.10;99.90;;;;;;5034322;28;20057;-59
2023/08/17 06:22:42;;;;;;;16.73;8.95;;;20.20;99.90;;;;;;5031140;28;20643;-59
2023/08/17 06:25:08;;;;;;;9.23;8.43;;;20.30;99.90;;;;;;5027857;28;20041;-57
2023/08/17 06:27:34;;;;;;;9.48;8.32;;;20.40;99.90;;;;;;5032020;28;20489;-59
2023/08/17 06:30:02;;;;;;;9.30;8.60;;;20.40;99.90;;;;;;5036741;28;20032;-58
2023/08/17 06:32:28;;;;;;;9.10;8.20;;;20.60;99.90;;;;;;5035868;28;20028;-57
2023/08/17 06:34:54;;;;;;;8.90;8.07;;;20.70;99.90;;;;;;5037535;28;20038;-56
2023/08/17 06:37:19;;;;;;;12.55;10.10;;;20.80;99.90;;;;;;5031631;28;20037;-59
2023/08/17 06:39:45;;;;;;;10.27;9.38;;;20.80;99.90;;;;;;5023229;28;20034;-58
2023/08/17 06:42:11;;;;;;;9.73;8.98;;;20.90;99.90;;;;;;5029624;28;20021;-58
2023/08/17 06:44:38;;;;;;;9.73;8.80;;;20.90;99.90;;;;;;5029928;28;20128;-59
2023/08/17 06:47:03;;;;;;;10.30;9.30;;;21.00;99.90;;;;;;5029907;28;20033;-60
2023/08/17 06:49:30;;;;;;;16.63;10.10;;;21.10;99.90;;;;;;5027173;28;20390;-60
2023/08/17 06:51:55;;;;;;;11.38;10.38;;;21.10;99.90;;;;;;5025796;28;20021;-59
2023/08/17 06:54:21;;;;;;;12.45;11.25;;;21.20;99.90;;;;;;5026038;28;20032;-60
2023/08/17 06:56:47;;;;;;;11.82;10.63;;;21.20;99.90;;;;;;5028521;28;20054;-59
2023/08/17 06:59:12;;;;;;;14.45;11.10;;;21.20;99.90;;;;;;5030841;28;20811;-59
2023/08/17 07:01:38;;;;;;;11.40;10.27;;;21.30;99.90;;;;;;5026024;28;20506;-59
2023/08/17 07:04:04;;;;;;;13.60;11.50;;;21.40;99.90;;;;;;5032329;28;20049;-59
2023/08/17 07:06:29;;;;;;;11.32;10.43;;;21.40;99.90;;;;;;5029623;28;20022;-57
2023/08/17 07:08:56;;;;;;;11.80;10.60;;;21.50;99.90;;;;;;5029382;28;20029;-59
2023/08/17 07:11:22;;;;;;;14.50;11.63;;;21.60;99.90;;;;;;5026860;28;20068;-59
2023/08/17 07:13:47;;;;;;;13.30;12.20;;;21.60;99.90;;;;;;5029884;28;20034;-59
2023/08/17 07:16:13;;;;;;;12.18;11.18;;;21.70;99.90;;;;;;5029838;28;20032;-59
2023/08/17 07:18:39;;;;;;;10.90;9.88;;;21.70;99.90;;;;;;5032123;28;20498;-59
2023/08/17 07:21:05;;;;;;;11.65;10.63;;;21.70;99.90;;;;;;5031937;28;20082;-59
2023/08/17 07:23:31;;;;;;;16.75;11.77;;;21.80;99.90;;;;;;5031546;28;20059;-59
2023/08/17 07:25:56;;;;;;;13.13;12.02;;;21.90;99.90;;;;;;5029517;28;20442;-58
2023/08/17 07:28:22;;;;;;;12.85;11.55;;;22.10;99.90;;;;;;5023681;28;20038;-59
2023/08/17 07:30:48;;;;;;;12.88;11.88;;;22.20;99.90;;;;;;5035773;28;20022;-59
2023/08/17 07:33:13;;;;;;;13.82;12.57;;;22.20;99.90;;;;;;5034309;28;20026;-58
2023/08/17 07:35:39;;;;;;;13.57;12.45;;;22.30;99.90;;;;;;5028255;28;20033;-57
2023/08/17 07:38:05;;;;;;;13.00;11.80;;;22.30;99.90;;;;;;5025023;28;20030;-59
2023/08/17 07:40:31;;;;;;;14.15;12.88;;;22.50;99.90;;;;;;5023581;28;20032;-59
2023/08/17 07:42:56;;;;;;;13.25;12.15;;;22.60;99.90;;;;;;5029746;28;20041;-59
2023/08/17 07:45:22;;;;;;;30.17;19.17;;;22.70;99.90;;;;;;5032067;28;20036;-60
2023/08/17 07:47:47;;;;;;;13.52;12.43;;;22.80;99.90;;;;;;5032689;28;20036;-58
2023/08/17 07:50:13;;;;;;;26.27;16.83;;;22.90;99.90;;;;;;5031292;28;20080;-59
2023/08/17 07:52:39;;;;;;;13.20;12.00;;;23.00;99.90;;;;;;5026462;28;20033;-60
2023/08/17 07:55:05;;;;;;;12.68;11.77;;;23.20;99.90;;;;;;5031278;28;20044;-58
2023/08/17 07:57:31;;;;;;;12.98;11.88;;;23.40;99.90;;;;;;5031032;28;20034;-58
2023/08/17 07:59:56;;;;;;;15.70;12.88;;;23.50;99.90;;;;;;5027860;28;20446;-60
2023/08/17 08:02:22;;;;;;;13.25;12.35;;;23.60;99.90;;;;;;5021660;28;20025;-59
2023/08/17 08:04:47;;;;;;;14.05;12.90;;;23.70;99.90;;;;;;5021834;28;20031;-58
2023/08/17 08:07:13;;;;;;;12.93;11.85;;;23.80;99.90;;;;;;5030484;28;20490;-59
2023/08/17 08:09:38;;;;;;;15.05;13.63;;;24.00;99.90;;;;;;5024947;28;20063;-60
2023/08/17 08:12:04;;;;;;;13.60;12.60;;;24.10;99.90;;;;;;5024506;28;20029;-57
2023/08/17 08:14:30;;;;;;;14.10;12.80;;;24.20;99.90;;;;;;5026910;28;20022;-60
2023/08/17 08:16:56;;;;;;;18.88;16.80;;;24.30;99.90;;;;;;5022527;28;20297;-58
2023/08/17 08:19:22;;;;;;;13.15;12.00;;;24.20;99.90;;;;;;5027793;28;20041;-61
2023/08/17 08:21:47;;;;;;;13.77;11.75;;;24.30;99.90;;;;;;5025098;28;20494;-60
2023/08/17 08:24:13;;;;;;;13.20;11.85;;;24.30;99.90;;;;;;5024391;28;20084;-59
2023/08/17 08:26:38;;;;;;;13.45;12.25;;;24.40;99.90;;;;;;5027625;28;20036;-60
2023/08/17 08:29:04;;;;;;;12.85;11.52;;;24.60;99.90;;;;;;5029437;28;20046;-61
2023/08/17 08:31:30;;;;;;;13.65;12.45;;;24.70;99.90;;;;;;5026253;28;20032;-58
2023/08/17 08:33:55;;;;;;;11.93;11.02;;;24.70;99.90;;;;;;5027756;28;20029;-60
2023/08/17 08:36:21;;;;;;;13.48;12.30;;;24.70;99.90;;;;;;5024783;28;20053;-60
2023/08/17 08:38:47;;;;;;;13.02;11.73;;;24.80;99.90;;;;;;5024695;28;20437;-58
2023/08/17 08:41:12;;;;;;;11.48;10.32;;;24.90;99.90;;;;;;5026959;28;20124;-59
2023/08/17 08:43:41;;;;;;;14.27;11.10;;;25.00;99.90;;;;;;5028074;28;20028;-60
2023/08/17 08:46:07;;;;;;;11.32;10.48;;;25.10;99.90;;;;;;5028688;28;20041;-59
2023/08/17 08:48:34;;;;;;;11.75;10.60;;;25.20;99.90;;;;;;5026048;28;20398;-61
2023/08/17 08:51:00;;;;;;;10.70;9.82;;;25.30;99.90;;;;;;5029205;28;20032;-58
2023/08/17 08:53:37;;;;;;;11.93;10.10;;;25.30;99.90;;;;;;5032084;28;20021;-58
2023/08/17 08:56:03;;;;;;;9.73;8.82;;;25.40;99.90;;;;;;5026186;28;20029;-59
2023/08/17 08:58:31;;;;;;;11.27;9.40;;;25.40;99.90;;;;;;5030192;28;20029;-59
2023/08/17 09:00:57;;;;;;;9.98;9.10;;;25.60;99.90;;;;;;5028226;28;20040;-60
2023/08/17 09:03:25;;;;;;;9.40;8.80;;;25.70;99.90;;;;;;5029662;28;20057;-58
2023/08/17 09:05:51;;;;;;;9.90;9.20;;;25.70;99.90;;;;;;5031719;28;20053;-59
2023/08/17 09:08:22;;;;;;;9.43;8.65;;;25.80;99.90;;;;;;5026896;28;20370;-60
2023/08/17 09:10:48;;;;;;;9.82;9.02;;;26.00;99.90;;;;;;5028143;28;20075;-59
2023/08/17 09:13:14;;;;;;;8.82;8.13;;;26.20;99.90;;;;;;5026133;28;20029;-59
2023/08/17 09:15:40;;;;;;;10.32;9.43;;;26.30;99.90;;;;;;5022813;28;20022;-58
2023/08/17 09:18:09;;;;;;;9.50;8.60;;;26.40;99.90;;;;;;5026337;28;20028;-56
2023/08/17 09:20:36;;;;;;;9.63;8.82;;;26.60;99.90;;;;;;5030251;28;20040;-58
2023/08/17 09:23:04;;;;;;;8.75;8.13;;;26.80;99.90;;;;;;5027611;28;20122;-57
2023/08/17 09:25:31;;;;;;;9.10;8.27;;;27.00;99.90;;;;;;5025573;28;20042;-59
2023/08/17 09:27:57;;;;;;;9.07;8.43;;;27.20;99.90;;;;;;5029197;28;20497;-60
2023/08/17 09:30:23;;;;;;;8.70;8.05;;;27.30;99.90;;;;;;5028161;28;20026;-59
2023/08/17 09:32:49;;;;;;;9.27;7.80;;;27.40;99.90;;;;;;5025210;28;20049;-59
2023/08/17 09:35:15;;;;;;;9.07;8.20;;;27.60;99.90;;;;;;5025229;28;20080;-59
2023/08/17 09:37:41;;;;;;;9.18;8.40;;;27.60;99.90;;;;;;5026297;28;20033;-60
2023/08/17 09:40:08;;;;;;;10.00;9.00;;;27.70;99.90;;;;;;5027874;28;20037;-57
2023/08/17 09:42:38;;;;;;;8.63;7.82;;;27.70;99.90;;;;;;5026713;28;20053;-59
2023/08/17 09:45:04;;;;;;;9.98;9.18;;;27.70;99.90;;;;;;5025364;28;20359;-60
2023/08/17 09:47:30;;;;;;;9.38;8.45;;;27.80;99.90;;;;;;5029481;28;20076;-60
2023/08/17 09:49:55;;;;;;;10.80;7.40;;;27.90;99.90;;;;;;5027505;28;20511;-58
2023/08/17 09:52:22;;;;;;;15.05;8.10;;;28.00;99.90;;;;;;5028060;28;20018;-60
2023/08/17 09:54:48;;;;;;;9.27;8.05;;;28.00;99.90;;;;;;5029306;28;20030;-59
2023/08/17 09:57:14;;;;;;;8.10;7.50;;;28.00;99.90;;;;;;5029507;28;20055;-59
2023/08/17 09:59:40;;;;;;;8.13;7.38;;;28.10;99.90;;;;;;5029101;28;20034;-60
2023/08/17 10:02:25;;;;;;;8.63;7.88;;;28.10;99.90;;;;;;5020216;28;20792;-60
2023/08/17 10:04:53;;;;;;;9.32;7.43;;;28.20;99.90;;;;;;5029602;28;20056;-59
2023/08/17 10:07:30;;;;;;;8.55;7.10;;;28.30;99.90;;;;;;5025000;28;20034;-59
2023/08/17 10:10:02;;;;;;;7.30;6.75;;;28.30;99.90;;;;;;5027699;28;20120;-58
2023/08/17 10:12:32;;;;;;;10.40;7.15;;;28.30;99.90;;;;;;5022319;28;20032;-59
2023/08/17 10:15:07;;;;;;;7.78;7.20;;;28.30;99.90;;;;;;5026352;28;20022;-58
2023/08/17 10:17:43;;;;;;;7.85;7.07;;;28.40;99.90;;;;;;5025239;28;20082;-59
2023/08/17 10:20:10;;;;;;;8.02;7.53;;;28.40;99.90;;;;;;5030623;28;20073;-58
2023/08/17 10:22:44;;;;;;;8.10;7.53;;;28.60;99.90;;;;;;5028308;28;20086;-60
2023/08/17 10:25:13;;;;;;;7.60;6.85;;;28.60;99.90;;;;;;5034206;28;20119;-59
2023/08/17 10:27:40;;;;;;;7.68;7.07;;;28.60;99.90;;;;;;5033293;28;20053;-58
2023/08/17 10:30:10;;;;;;;7.53;6.93;;;28.70;99.90;;;;;;5023833;28;20079;-58
2023/08/17 10:32:36;;;;;;;6.85;6.35;;;28.70;99.90;;;;;;5019167;28;20014;-58
2023/08/17 10:35:02;;;;;;;6.97;6.47;;;28.80;99.90;;;;;;5017752;28;20375;-60
2023/08/17 10:37:29;;;;;;;8.40;7.63;;;28.90;99.90;;;;;;5029329;28;20029;-59
2023/08/17 10:39:54;;;;;;;9.20;6.82;;;28.90;99.90;;;;;;5026592;28;20034;-60
2023/08/17 10:42:36;;;;;;;10.02;7.35;;;29.00;99.90;;;;;;5025903;28;20048;-58
2023/08/17 10:45:26;;;;;;;7.35;6.80;;;29.10;99.90;;;;;;5025911;28;20030;-58
2023/08/17 10:48:00;;;;;;;7.70;7.10;;;29.00;99.90;;;;;;5032332;28;20162;-59
2023/08/17 10:50:26;;;;;;;7.40;6.90;;;29.10;99.90;;;;;;5031987;28;20405;-61
2023/08/17 10:52:53;;;;;;;7.40;6.60;;;29.20;99.90;;;;;;5032281;28;20034;-58
2023/08/17 10:55:36;;;;;;;7.75;7.15;;;29.20;99.90;;;;;;5030444;28;20052;-60
2023/08/17 10:58:01;;;;;;;8.23;7.25;;;29.20;99.90;;;;;;5023968;28;20041;-58
2023/08/17 11:00:34;;;;;;;8.90;8.02;;;29.20;99.90;;;;;;5025004;28;20113;-58
2023/08/17 11:03:08;;;;;;;7.82;7.18;;;29.30;99.90;;;;;;5028127;28;20032;-59
2023/08/17 11:06:19;;;;;;;7.70;7.20;;;29.40;99.90;;;;;;5030128;28;20022;-57
2023/08/17 11:08:52;;;;;;;7.13;6.63;;;29.40;99.90;;;;;;5022781;28;20033;-59
2023/08/17 11:11:19;;;;;;;;;;;29.40;99.90;;;;;;5009076;28;20489;-60
2023/08/17 11:13:46;;;;;;;7.80;7.15;;;29.50;99.90;;;;;;5027114;28;20337;-59
2023/08/17 11:16:13;;;;;;;7.75;7.18;;;29.50;99.90;;;;;;5022662;28;20030;-58
2023/08/17 11:18:41;;;;;;;8.55;6.97;;;29.50;99.90;;;;;;5024623;28;20053;-59
2023/08/17 11:21:08;;;;;;;6.80;6.30;;;29.40;99.90;;;;;;5026060;28;20028;-58
2023/08/17 11:23:35;;;;;;;7.35;6.60;;;29.40;99.90;;;;;;5029218;28;20097;-59
2023/08/17 11:26:02;;;;;;;7.55;6.82;;;29.40;99.90;;;;;;5028324;28;20049;-58
2023/08/17 11:28:40;;;;;;;7.45;6.80;;;29.50;99.90;;;;;;5027183;28;20034;-60
2023/08/17 11:31:09;;;;;;;7.00;6.40;;;29.60;99.90;;;;;;5029743;28;20049;-57
2023/08/17 11:33:36;;;;;;;6.60;6.10;;;29.60;99.90;;;;;;5028557;28;20026;-59
2023/08/17 11:36:05;;;;;;;6.72;6.22;;;29.60;99.90;;;;;;5027352;28;20041;-59
2023/08/17 11:38:35;;;;;;;6.88;6.20;;;29.70;99.90;;;;;;5030596;28;20108;-58
2023/08/17 11:41:08;;;;;;;6.80;6.25;;;29.70;99.90;;;;;;5028628;28;20504;-57
2023/08/17 11:43:33;;;;;;;7.93;6.15;;;29.90;99.90;;;;;;5028838;28;20034;-59
2023/08/17 11:46:00;;;;;;;7.50;6.97;;;29.90;99.90;;;;;;5028734;28;20045;-60
2023/08/17 11:48:27;;;;;;;6.85;6.28;;;30.00;99.90;;;;;;5032533;28;20064;-60
2023/08/17 11:50:53;;;;;;;7.85;6.90;;;30.10;99.90;;;;;;5029212;28;20017;-60
2023/08/17 11:53:18;;;;;;;9.75;6.85;;;30.20;99.90;;;;;;5032082;28;20043;-60
2023/08/17 11:55:44;;;;;;;8.38;6.65;;;30.30;99.90;;;;;;5028527;28;20501;-60
2023/08/17 11:58:10;;;;;;;6.32;5.93;;;30.30;99.90;;;;;;5029776;28;20403;-58
2023/08/17 12:00:39;;;;;;;7.57;6.85;;;30.30;99.90;;;;;;5029756;28;20033;-59
2023/08/17 12:03:05;;;;;;;7.07;5.93;;;30.30;99.90;;;;;;5027513;28;20124;-60
2023/08/17 12:05:32;;;;;;;8.15;6.55;;;30.40;99.90;;;;;;5011560;28;20092;-60
2023/08/17 12:07:59;;;;;;;7.35;6.85;;;30.60;99.90;;;;;;5030924;28;20049;-58
2023/08/17 12:10:28;;;;;;;6.70;6.20;;;30.70;99.90;;;;;;5029371;28;20524;-57
2023/08/17 12:12:57;;;;;;;7.03;6.40;;;30.90;99.90;;;;;;5029442;28;20477;-59
2023/08/17 12:15:23;;;;;;;7.43;6.68;;;30.90;99.90;;;;;;5023543;28;20494;-60
2023/08/17 12:17:52;;;;;;;7.38;6.88;;;31.10;99.90;;;;;;5028056;28;20064;-58
2023/08/17 12:20:19;;;;;;;7.53;6.88;;;30.90;99.90;;;;;;5025762;28;20042;-60
2023/08/17 12:22:46;;;;;;;7.75;7.15;;;30.50;99.90;;;;;;5029868;28;20490;-59
2023/08/17 12:25:11;;;;;;;7.32;6.75;;;30.10;99.90;;;;;;5025625;28;20064;-59
2023/08/17 12:27:37;;;;;;;6.97;6.47;;;29.70;99.90;;;;;;5025752;28;20065;-59
2023/08/17 12:30:03;;;;;;;7.97;6.68;;;29.40;99.90;;;;;;5028597;28;20079;-60
2023/08/17 12:32:29;;;;;;;7.72;6.68;;;29.20;99.90;;;;;;5027000;28;20037;-60
2023/08/17 12:34:54;;;;;;;6.88;6.28;;;29.30;99.90;;;;;;5028049;28;20033;-60
2023/08/17 12:37:21;;;;;;;6.85;6.20;;;29.50;99.90;;;;;;5028952;28;20884;-60
2023/08/17 12:39:48;;;;;;;7.05;6.55;;;29.90;99.90;;;;;;5025221;28;20037;-60
2023/08/17 12:42:14;;;;;;;7.07;6.53;;;30.20;99.90;;;;;;5027233;28;20512;-59